Time;durP1;ratioP1;P1;durP2;ratioP2;P2;SDS_P1;SDS_P2;PMS_P1;PMS_P2;Temp;Humidity;BMP_temperature;BMP_pressure;BME280_temperature;BME280_humidity;BME280_pressure;Samples;Min_cycle;Max_cycle;Signal;HPM_P1;HPM_P2
2022/09/11 00:01:34;;;;;;;60.58;51.17;;;23.40;59.50;;;;;;5009531;28;91525;-58
2022/09/11 00:04:01;;;;;;;61.28;51.60;;;23.40;59.60;;;;;;5011814;27;91936;-59
2022/09/11 00:06:27;;;;;;;61.60;51.20;;;23.40;59.60;;;;;;5018139;27;90252;-59
2022/09/11 00:08:59;;;;;;;61.90;51.63;;;23.50;59.50;;;;;;5013913;27;89935;-59
2022/09/11 00:11:27;;;;;;;60.90;51.03;;;23.40;59.60;;;;;;5005807;27;91562;-59
2022/09/11 00:13:53;;;;;;;61.03;51.38;;;23.40;59.60;;;;;;5011791;28;90799;-59
2022/09/11 00:16:25;;;;;;;61.10;51.08;;;23.40;59.60;;;;;;5013563;28;89822;-59
2022/09/11 00:18:52;;;;;;;61.20;51.53;;;23.40;59.60;;;;;;5016037;28;90193;-59
2022/09/11 00:21:19;;;;;;;61.42;51.55;;;23.40;59.60;;;;;;5017296;27;90058;-58
2022/09/11 00:23:48;;;;;;;61.25;51.63;;;23.50;59.50;;;;;;5010495;27;96439;-59
2022/09/11 00:26:16;;;;;;;61.22;51.00;;;23.40;59.60;;;;;;5007042;28;91696;-60
2022/09/11 00:28:42;;;;;;;60.35;51.05;;;23.40;59.50;;;;;;5013154;28;89964;-60
2022/09/11 00:31:11;;;;;;;60.28;51.22;;;23.40;59.60;;;;;;5009448;28;91189;-60
2022/09/11 00:33:38;;;;;;;60.65;51.47;;;23.40;59.60;;;;;;5011842;28;93911;-60
2022/09/11 00:36:11;;;;;;;61.50;51.15;;;23.40;59.70;;;;;;5008078;28;89972;-59
2022/09/11 00:38:38;;;;;;;60.80;51.40;;;23.40;59.70;;;;;;5007839;27;90379;-59
2022/09/11 00:41:07;;;;;;;60.65;50.95;;;23.40;59.60;;;;;;5011187;28;91281;-59
2022/09/11 00:44:15;;;;;;;61.53;51.63;;;23.40;59.60;;;;;;5010504;27;90843;-60
2022/09/11 00:46:47;;;;;;;60.35;50.90;;;23.40;59.70;;;;;;4974346;28;95243;-60
2022/09/11 00:49:25;;;;;;;60.75;51.15;;;23.40;59.60;;;;;;5008794;27;89577;-60
2022/09/11 00:51:56;;;;;;;61.05;51.20;;;23.40;59.60;;;;;;5006780;28;93586;-60
2022/09/11 00:54:38;;;;;;;61.57;51.43;;;23.40;59.60;;;;;;5008452;27;91777;-59
2022/09/11 00:57:07;;;;;;;60.22;51.05;;;23.40;59.60;;;;;;5014872;28;89976;-59
2022/09/11 00:59:33;;;;;;;61.22;51.42;;;23.40;59.60;;;;;;5015498;28;90286;-59
2022/09/11 01:02:00;;;;;;;60.20;50.70;;;23.30;59.70;;;;;;5013756;27;90215;-59
2022/09/11 01:04:28;;;;;;;60.83;51.03;;;23.40;59.70;;;;;;5004044;27;91050;-60
2022/09/11 01:06:56;;;;;;;60.42;50.95;;;23.30;59.60;;;;;;5011854;28;89706;-59
2022/09/11 01:09:25;;;;;;;61.15;51.25;;;23.30;59.60;;;;;;5005916;28;90393;-59
2022/09/11 01:12:07;;;;;;;61.38;51.55;;;23.30;59.60;;;;;;5009578;27;91140;-59
2022/09/11 01:14:35;;;;;;;61.03;51.47;;;23.30;59.60;;;;;;5004512;28;91113;-60
2022/09/11 01:17:11;;;;;;;62.28;51.50;;;23.30;59.70;;;;;;5013463;27;90840;-59
2022/09/11 01:20:08;;;;;;;60.67;51.33;;;23.30;59.60;;;;;;5015092;28;90040;-60
2022/09/11 01:23:18;;;;;;;60.90;51.25;;;23.30;59.60;;;;;;5009555;28;90715;-60
2022/09/11 01:25:50;;;;;;;60.83;51.08;;;23.30;59.60;;;;;;5006111;28;90926;-61
2022/09/11 01:28:23;;;;;;;60.97;51.35;;;23.30;59.60;;;;;;5010523;27;93489;-60
2022/09/11 01:30:57;;;;;;;61.80;51.35;;;23.30;59.70;;;;;;5010597;28;89918;-59
2022/09/11 01:33:40;;;;;;;61.20;51.30;;;23.30;59.70;;;;;;5013046;28;91045;-59
2022/09/11 01:36:41;;;;;;;60.70;51.25;;;23.30;59.70;;;;;;5011669;28;90820;-59
2022/09/11 01:39:07;;;;;;;60.03;50.57;;;23.30;59.70;;;;;;5002540;27;90372;-59
2022/09/11 01:41:58;;;;;;;61.70;51.47;;;23.30;59.70;;;;;;4998442;28;90253;-59
2022/09/11 01:44:26;;;;;;;60.17;51.22;;;23.30;59.80;;;;;;5007998;28;92205;-58
2022/09/11 01:46:52;;;;;;;60.83;51.10;;;23.30;59.70;;;;;;5012950;27;94655;-59
2022/09/11 01:49:34;;;;;;;60.03;51.25;;;23.30;59.80;;;;;;5013122;27;89663;-61
2022/09/11 01:52:03;;;;;;;59.83;51.10;;;23.30;59.80;;;;;;5007356;28;90175;-59
2022/09/11 01:54:33;;;;;;;60.47;51.17;;;23.20;59.70;;;;;;5006279;27;91122;-59
2022/09/11 01:57:25;;;;;;;60.35;50.65;;;23.30;59.80;;;;;;5007338;27;90821;-61
2022/09/11 01:59:56;;;;;;;60.75;51.13;;;23.30;59.80;;;;;;5009388;28;90104;-59
2022/09/11 02:02:32;;;;;;;62.03;51.90;;;23.20;59.80;;;;;;5019299;27;93882;-60
2022/09/11 02:05:05;;;;;;;59.95;50.83;;;23.20;59.80;;;;;;5006136;28;90910;-59
2022/09/11 02:07:38;;;;;;;60.75;50.83;;;23.20;59.80;;;;;;5009828;28;90250;-61
2022/09/11 02:10:10;;;;;;;60.80;51.55;;;23.20;59.90;;;;;;5014315;27;97737;-60
2022/09/11 02:12:42;;;;;;;60.03;51.03;;;23.20;59.90;;;;;;5007521;27;89871;-59
2022/09/11 02:15:10;;;;;;;60.35;51.10;;;23.20;59.90;;;;;;5003858;27;91591;-59
2022/09/11 02:17:47;;;;;;;60.38;51.22;;;23.20;59.90;;;;;;5009193;28;93760;-60
2022/09/11 02:20:13;;;;;;;60.47;50.97;;;23.20;59.90;;;;;;5005405;27;89881;-59
2022/09/11 02:22:39;;;;;;;60.75;51.28;;;23.20;60.00;;;;;;5009490;28;91137;-59
2022/09/11 02:25:05;;;;;;;60.88;51.45;;;23.20;59.90;;;;;;5007318;27;91268;-60
2022/09/11 02:27:32;;;;;;;60.22;51.28;;;23.20;59.90;;;;;;5009790;27;91522;-60
2022/09/11 02:29:58;;;;;;;61.47;51.60;;;23.10;59.90;;;;;;5013631;27;90712;-58
2022/09/11 02:32:25;;;;;;;60.13;51.03;;;23.10;59.90;;;;;;5009167;27;89884;-60
2022/09/11 02:34:55;;;;;;;60.25;51.15;;;23.10;59.90;;;;;;5006126;28;95377;-60
2022/09/11 02:37:30;;;;;;;60.45;51.00;;;23.10;59.90;;;;;;4997288;27;94356;-60
2022/09/11 02:40:05;;;;;;;61.40;51.08;;;23.20;59.90;;;;;;5013096;27;95053;-59
2022/09/11 02:42:44;;;;;;;60.15;50.75;;;23.10;60.00;;;;;;5002690;27;91568;-60
2022/09/11 02:45:46;;;;;;;59.90;50.80;;;23.10;60.10;;;;;;5006383;28;93642;-60
2022/09/11 02:48:35;;;;;;;60.67;51.15;;;23.10;60.10;;;;;;5006469;27;93596;-60
2022/09/11 02:51:20;;;;;;;60.08;51.05;;;23.10;60.00;;;;;;5014054;28;90234;-59
2022/09/11 02:54:00;;;;;;;60.85;51.15;;;23.10;60.00;;;;;;5005392;28;90475;-58
2022/09/11 02:56:39;;;;;;;60.20;51.13;;;23.10;60.00;;;;;;5007528;27;91282;-60
2022/09/11 02:59:20;;;;;;;59.63;50.55;;;23.10;60.00;;;;;;5000533;28;90506;-58
2022/09/11 03:01:51;;;;;;;60.40;51.08;;;23.00;60.10;;;;;;5005938;28;91275;-60
2022/09/11 03:04:19;;;;;;;61.08;51.45;;;23.00;60.10;;;;;;5009342;28;90547;-59
2022/09/11 03:06:46;;;;;;;59.80;50.85;;;23.00;60.90;;;;;;5006405;28;92059;-59
2022/09/11 03:09:12;;;;;;;60.97;51.10;;;23.00;60.10;;;;;;5005961;27;90921;-58
2022/09/11 03:11:37;;;;;;;60.33;51.13;;;23.00;60.10;;;;;;5012022;27;91571;-59
2022/09/11 03:14:03;;;;;;;61.13;51.17;;;23.00;60.10;;;;;;5003663;27;92348;-60
2022/09/11 03:16:29;;;;;;;60.67;51.25;;;23.00;60.00;;;;;;5008220;27;92698;-59
2022/09/11 03:18:54;;;;;;;60.38;51.10;;;23.00;60.20;;;;;;5011717;28;90983;-59
2022/09/11 03:21:20;;;;;;;61.42;51.03;;;23.00;60.20;;;;;;5005280;27;90518;-59
2022/09/11 03:23:46;;;;;;;60.17;51.08;;;23.00;60.20;;;;;;5003028;28;96445;-60
2022/09/11 03:26:11;;;;;;;59.90;50.60;;;23.00;60.30;;;;;;5004951;27;92143;-59
2022/09/11 03:28:38;;;;;;;60.40;51.42;;;23.00;60.30;;;;;;5009417;27;90978;-59
2022/09/11 03:31:06;;;;;;;60.45;51.22;;;22.90;60.20;;;;;;5012526;27;91875;-59
2022/09/11 03:33:32;;;;;;;59.55;50.55;;;22.90;60.90;;;;;;5004974;27;90504;-59
2022/09/11 03:35:58;;;;;;;60.25;50.90;;;23.00;60.40;;;;;;5012457;28;91168;-60
2022/09/11 03:38:24;;;;;;;59.80;50.67;;;22.90;60.30;;;;;;5001757;27;95577;-60
2022/09/11 03:40:49;;;;;;;59.97;50.80;;;22.90;60.40;;;;;;5002644;27;90101;-59
2022/09/11 03:43:15;;;;;;;59.58;50.70;;;22.90;61.20;;;;;;5003850;27;90266;-59
2022/09/11 03:45:42;;;;;;;60.13;50.65;;;22.90;60.60;;;;;;5005798;27;91299;-59
2022/09/11 03:48:08;;;;;;;59.47;50.70;;;22.90;60.70;;;;;;5006863;27;91976;-60
2022/09/11 03:50:34;;;;;;;59.53;50.85;;;22.90;60.60;;;;;;5007219;27;91028;-59
2022/09/11 03:53:00;;;;;;;59.08;50.45;;;22.80;60.40;;;;;;4999872;27;93895;-59
2022/09/11 03:55:26;;;;;;;60.08;50.97;;;22.90;60.50;;;;;;5004448;27;91248;-60
2022/09/11 03:57:51;;;;;;;60.50;51.17;;;22.80;60.50;;;;;;4996295;28;94232;-59
2022/09/11 04:00:17;;;;;;;60.53;50.63;;;22.90;60.70;;;;;;5008908;27;90744;-59
2022/09/11 04:02:43;;;;;;;59.15;50.83;;;22.80;60.60;;;;;;5009843;27;90447;-59
2022/09/11 04:05:09;;;;;;;59.50;50.85;;;22.80;60.70;;;;;;5007617;27;94510;-60
2022/09/11 04:07:35;;;;;;;59.72;50.75;;;22.80;60.70;;;;;;5013953;27;91273;-59
2022/09/11 04:10:01;;;;;;;59.90;50.97;;;22.80;60.70;;;;;;5000957;27;92428;-59
2022/09/11 04:12:27;;;;;;;59.85;50.92;;;22.80;60.70;;;;;;5010392;28;91146;-59
2022/09/11 04:14:53;;;;;;;59.58;50.95;;;22.80;60.70;;;;;;5003690;27;94354;-59
2022/09/11 04:17:19;;;;;;;59.35;50.28;;;22.80;60.70;;;;;;5004110;28;91728;-59
2022/09/11 04:19:44;;;;;;;61.10;51.05;;;22.80;60.60;;;;;;5002005;27;90618;-59
2022/09/11 04:22:10;;;;;;;60.15;50.88;;;22.80;60.70;;;;;;5011441;28;89823;-59
2022/09/11 04:24:36;;;;;;;58.85;50.40;;;22.80;60.80;;;;;;5007410;27;92585;-62
2022/09/11 04:27:02;;;;;;;60.58;50.67;;;22.70;60.70;;;;;;5011142;27;90907;-60
2022/09/11 04:29:28;;;;;;;60.40;50.70;;;22.70;60.80;;;;;;5004814;27;89736;-59
2022/09/11 04:31:54;;;;;;;59.85;51.33;;;22.70;60.70;;;;;;5009214;28;89423;-61
2022/09/11 04:34:20;;;;;;;59.67;50.42;;;22.70;60.70;;;;;;5007181;28;91040;-62
2022/09/11 04:36:46;;;;;;;59.38;50.72;;;22.70;60.60;;;;;;5011479;27;91927;-59
2022/09/11 04:39:13;;;;;;;59.45;50.80;;;22.70;60.80;;;;;;5008635;28;91507;-58
2022/09/11 04:41:39;;;;;;;60.13;51.35;;;22.60;60.80;;;;;;5009262;27;92019;-60
2022/09/11 04:44:05;;;;;;;59.88;50.58;;;22.70;60.90;;;;;;5005552;28;91039;-59
2022/09/11 04:46:30;;;;;;;59.72;50.83;;;22.70;60.90;;;;;;5010628;28;91111;-59
2022/09/11 04:48:58;;;;;;;59.10;50.53;;;22.70;60.80;;;;;;5016193;27;90446;-60
2022/09/11 04:51:29;;;;;;;59.78;51.05;;;22.70;60.90;;;;;;5016858;28;94319;-60
2022/09/11 04:53:56;;;;;;;59.65;50.95;;;22.70;60.90;;;;;;5006579;27;91343;-59
2022/09/11 04:56:23;;;;;;;59.03;50.53;;;22.70;60.80;;;;;;5006577;27;91965;-59
2022/09/11 04:59:14;;;;;;;59.22;50.45;;;22.60;60.90;;;;;;5010568;27;89622;-58
2022/09/11 05:01:42;;;;;;;58.92;50.58;;;22.60;60.80;;;;;;5016206;28;89787;-59
2022/09/11 05:04:17;;;;;;;59.53;50.50;;;22.60;60.80;;;;;;5022580;28;92110;-59
2022/09/11 05:06:47;;;;;;;59.67;50.90;;;22.60;60.80;;;;;;5001877;28;90884;-59
2022/09/11 05:09:14;;;;;;;59.00;50.58;;;22.60;60.70;;;;;;5010867;27;90300;-59
2022/09/11 05:11:40;;;;;;;59.70;50.85;;;22.60;60.80;;;;;;5010907;28;90323;-60
2022/09/11 05:14:07;;;;;;;58.60;50.13;;;22.70;60.70;;;;;;5011970;27;91395;-59
2022/09/11 05:16:35;;;;;;;60.67;50.60;;;22.60;60.70;;;;;;5005733;28;91248;-61
2022/09/11 05:19:03;;;;;;;59.95;50.75;;;22.60;60.80;;;;;;5009622;27;91469;-59
2022/09/11 05:21:30;;;;;;;59.53;50.67;;;22.60;60.80;;;;;;5012510;28;89538;-59
2022/09/11 05:23:58;;;;;;;58.90;50.65;;;22.60;60.90;;;;;;5014093;27;90840;-60
2022/09/11 05:26:30;;;;;;;59.42;50.58;;;22.60;60.90;;;;;;5007813;27;92182;-59
2022/09/11 05:28:58;;;;;;;60.22;50.92;;;22.50;60.90;;;;;;5004361;28;91010;-59
2022/09/11 05:31:25;;;;;;;58.78;50.35;;;22.50;61.00;;;;;;5011280;28;97915;-60
2022/09/11 05:33:54;;;;;;;60.10;50.65;;;22.60;61.10;;;;;;5005758;28;91125;-59
2022/09/11 05:36:21;;;;;;;58.70;50.15;;;22.60;61.00;;;;;;5005401;27;93981;-60
2022/09/11 05:38:47;;;;;;;59.22;50.72;;;22.60;61.00;;;;;;5001248;28;90292;-60
2022/09/11 05:41:13;;;;;;;59.05;50.35;;;22.60;60.90;;;;;;5006996;27;90135;-59
2022/09/11 05:43:41;;;;;;;59.33;50.80;;;22.50;60.70;;;;;;5009111;27;91203;-59
2022/09/11 05:46:11;;;;;;;58.75;50.17;;;22.60;60.70;;;;;;5007373;28;91222;-59
2022/09/11 05:48:37;;;;;;;58.97;50.45;;;22.60;60.70;;;;;;5005962;28;90601;-59
2022/09/11 05:51:06;;;;;;;60.47;50.63;;;22.60;60.70;;;;;;5007356;28;90443;-59
2022/09/11 05:53:32;;;;;;;59.17;50.33;;;22.50;60.60;;;;;;5017260;28;91028;-60
2022/09/11 05:56:19;;;;;;;58.88;50.42;;;22.60;60.60;;;;;;5009258;27;91770;-60
2022/09/11 05:58:46;;;;;;;58.95;50.42;;;22.60;60.60;;;;;;5005773;28;90261;-60
2022/09/11 06:01:14;;;;;;;59.20;50.33;;;22.50;60.40;;;;;;5013427;27;90802;-59
2022/09/11 06:03:41;;;;;;;59.30;50.47;;;22.60;60.50;;;;;;5008377;28;91039;-60
2022/09/11 06:06:09;;;;;;;58.80;50.55;;;22.60;60.40;;;;;;5011488;28;90373;-59
2022/09/11 06:08:36;;;;;;;59.30;50.42;;;22.60;60.30;;;;;;5011953;28;90665;-61
2022/09/11 06:11:06;;;;;;;60.10;50.47;;;22.60;60.30;;;;;;5012021;27;90068;-59
2022/09/11 06:13:37;;;;;;;58.80;50.10;;;22.60;60.20;;;;;;5008506;28;91388;-60
2022/09/11 06:16:06;;;;;;;59.10;50.58;;;22.70;60.20;;;;;;5014651;28;90267;-60
2022/09/11 06:18:31;;;;;;;59.30;50.17;;;22.60;60.20;;;;;;5008369;27;91999;-59
2022/09/11 06:21:04;;;;;;;58.28;50.00;;;22.60;60.20;;;;;;5012959;28;90881;-59
2022/09/11 06:23:30;;;;;;;58.50;50.10;;;22.60;60.10;;;;;;5012264;28;90945;-59
2022/09/11 06:26:09;;;;;;;59.38;50.75;;;22.70;60.10;;;;;;5016081;28;96645;-59
2022/09/11 06:28:36;;;;;;;59.08;50.28;;;22.60;60.00;;;;;;5012745;28;90014;-60
2022/09/11 06:31:06;;;;;;;58.50;50.25;;;22.70;59.90;;;;;;5015663;28;90180;-60
2022/09/11 06:33:34;;;;;;;59.15;50.58;;;22.70;59.90;;;;;;5007869;28;91132;-59
2022/09/11 06:36:05;;;;;;;58.78;50.15;;;22.70;59.90;;;;;;5008571;27;90874;-59
2022/09/11 06:38:31;;;;;;;59.30;50.40;;;22.60;60.00;;;;;;5010820;28;89839;-59
2022/09/11 06:41:01;;;;;;;58.60;50.22;;;22.70;59.90;;;;;;5003282;28;93711;-60
2022/09/11 06:43:28;;;;;;;58.53;49.95;;;22.70;59.90;;;;;;5004093;27;96820;-61
2022/09/11 06:45:53;;;;;;;59.22;50.40;;;22.60;59.90;;;;;;5008141;27;91859;-60
2022/09/11 06:48:19;;;;;;;58.28;49.85;;;22.70;59.90;;;;;;5010628;27;94075;-59
2022/09/11 06:50:45;;;;;;;58.42;50.00;;;22.70;60.00;;;;;;5006938;27;90308;-59
2022/09/11 06:53:13;;;;;;;58.80;50.10;;;22.70;59.90;;;;;;5000978;27;97715;-60
2022/09/11 06:55:39;;;;;;;58.30;49.97;;;22.60;59.80;;;;;;5011868;27;92302;-59
2022/09/11 06:58:07;;;;;;;58.15;49.88;;;22.70;59.80;;;;;;5007270;27;91030;-59
2022/09/11 07:00:35;;;;;;;58.75;50.25;;;22.60;59.80;;;;;;5001413;27;89557;-60
2022/09/11 07:03:01;;;;;;;59.92;50.63;;;22.70;59.80;;;;;;5002891;27;91252;-60
2022/09/11 07:05:27;;;;;;;58.97;50.33;;;22.70;59.80;;;;;;5011354;27;90979;-60
2022/09/11 07:07:54;;;;;;;58.83;50.08;;;22.70;59.80;;;;;;5007251;27;94717;-60
2022/09/11 07:10:21;;;;;;;59.90;50.28;;;22.70;59.80;;;;;;5008382;27;92432;-61
2022/09/11 07:12:47;;;;;;;59.47;50.88;;;22.70;59.80;;;;;;5005803;27;91575;-59
2022/09/11 07:15:13;;;;;;;58.97;50.35;;;22.70;59.70;;;;;;5006696;27;91820;-59
2022/09/11 07:17:39;;;;;;;59.33;50.63;;;22.70;59.70;;;;;;5012478;28;91132;-60
2022/09/11 07:20:07;;;;;;;59.47;50.60;;;22.70;59.70;;;;;;5008329;28;91213;-60
2022/09/11 07:22:34;;;;;;;59.30;50.63;;;22.70;59.60;;;;;;5004535;27;91058;-60
2022/09/11 07:25:00;;;;;;;58.83;50.13;;;22.70;59.70;;;;;;5008939;28;96614;-59
2022/09/11 07:27:27;;;;;;;58.65;50.05;;;22.70;59.60;;;;;;5010514;27;90004;-59
2022/09/11 07:29:52;;;;;;;58.65;50.05;;;22.80;59.70;;;;;;5005148;28;91603;-60
2022/09/11 07:32:18;;;;;;;58.85;50.03;;;22.70;59.70;;;;;;5005683;28;92562;-59
2022/09/11 07:34:46;;;;;;;58.65;50.05;;;22.70;59.70;;;;;;5011863;27;92146;-59
2022/09/11 07:37:13;;;;;;;59.53;50.28;;;22.70;59.60;;;;;;5006607;28;93094;-61
2022/09/11 07:39:39;;;;;;;58.53;49.95;;;22.70;59.60;;;;;;5004224;27;91171;-59
2022/09/11 07:42:06;;;;;;;58.75;50.13;;;22.70;60.30;;;;;;5004233;27;91246;-61
2022/09/11 07:44:35;;;;;;;59.80;50.22;;;22.70;59.60;;;;;;5004288;27;91075;-60
2022/09/11 07:47:01;;;;;;;59.42;50.47;;;22.70;59.60;;;;;;5006872;28;91412;-60
2022/09/11 07:49:27;;;;;;;59.17;50.25;;;22.80;59.70;;;;;;4997446;27;90118;-60
2022/09/11 07:51:54;;;;;;;59.05;50.55;;;22.80;59.70;;;;;;5012447;28;91387;-60
2022/09/11 07:54:20;;;;;;;58.72;50.08;;;22.80;59.80;;;;;;5011174;27;94415;-60
2022/09/11 07:56:46;;;;;;;59.25;50.45;;;22.80;59.70;;;;;;5006745;27;91022;-61
2022/09/11 07:59:12;;;;;;;59.40;50.05;;;22.80;59.70;;;;;;5003784;27;90376;-60
2022/09/11 08:01:39;;;;;;;59.72;50.45;;;22.80;59.70;;;;;;5006200;28;91961;-59
2022/09/11 08:04:07;;;;;;;60.45;50.33;;;22.80;59.70;;;;;;5008174;28;92068;-59
2022/09/11 08:06:35;;;;;;;59.63;50.55;;;22.80;59.70;;;;;;5007015;27;92696;-59
2022/09/11 08:09:04;;;;;;;59.08;50.20;;;22.80;59.70;;;;;;5014851;27;92507;-60
2022/09/11 08:11:33;;;;;;;58.75;50.08;;;22.80;59.70;;;;;;5001052;28;92895;-59
2022/09/11 08:13:59;;;;;;;59.20;50.28;;;22.90;59.70;;;;;;5003519;28;95910;-60
2022/09/11 08:16:26;;;;;;;59.92;50.30;;;22.90;59.70;;;;;;5004164;27;92098;-58
2022/09/11 08:18:53;;;;;;;59.28;50.00;;;22.90;59.70;;;;;;5017710;27;90005;-59
2022/09/11 08:21:21;;;;;;;58.92;50.17;;;22.90;59.70;;;;;;5006534;27;92508;-59
2022/09/11 08:23:47;;;;;;;59.40;50.33;;;22.90;59.70;;;;;;5017535;27;91960;-60
2022/09/11 08:26:20;;;;;;;59.05;50.40;;;22.90;59.70;;;;;;5006779;27;90181;-59
2022/09/11 08:28:48;;;;;;;60.10;50.33;;;22.90;59.70;;;;;;5013779;27;90241;-59
2022/09/11 08:31:13;;;;;;;59.83;50.17;;;22.90;59.70;;;;;;5012840;28;91112;-60
2022/09/11 08:33:39;;;;;;;59.38;50.67;;;22.90;59.70;;;;;;5010728;27;91140;-60
2022/09/11 08:36:08;;;;;;;60.92;50.55;;;22.90;59.70;;;;;;5002321;28;91563;-59
2022/09/11 08:38:35;;;;;;;59.53;50.17;;;23.00;59.70;;;;;;5011450;28;89855;-59
2022/09/11 08:41:22;;;;;;;61.40;51.10;;;22.90;59.70;;;;;;5006192;27;92999;-59
2022/09/11 08:43:52;;;;;;;60.55;51.15;;;23.00;60.60;;;;;;5016489;28;89852;-60
2022/09/11 08:46:22;;;;;;;61.50;51.47;;;23.10;61.20;;;;;;5001606;27;91668;-59
2022/09/11 08:49:20;;;;;;;60.45;51.03;;;23.20;61.10;;;;;;5022062;28;89713;-58
2022/09/11 08:51:48;;;;;;;60.83;51.33;;;23.30;61.20;;;;;;5005363;27;91280;-59
2022/09/11 08:54:32;;;;;;;60.88;51.22;;;23.30;61.20;;;;;;5008617;27;90735;-60
2022/09/11 08:57:25;;;;;;;61.78;51.53;;;23.30;61.10;;;;;;5011347;27;92496;-59
2022/09/11 09:00:16;;;;;;;61.88;51.22;;;23.40;61.20;;;;;;5002963;27;93154;-59
2022/09/11 09:03:04;;;;;;;61.55;51.58;;;23.40;61.00;;;;;;5003936;28;93175;-59
2022/09/11 09:05:51;;;;;;;60.63;51.00;;;23.40;61.10;;;;;;5009155;28;94536;-59
2022/09/11 09:08:36;;;;;;;61.80;51.05;;;23.50;61.10;;;;;;5009782;27;89680;-59
2022/09/11 09:11:23;;;;;;;63.38;51.40;;;23.50;61.20;;;;;;5011657;27;90824;-59
2022/09/11 09:14:13;;;;;;;64.82;51.70;;;23.50;61.40;;;;;;4999237;27;92103;-59
2022/09/11 09:17:00;;;;;;;64.03;52.63;;;23.50;61.70;;;;;;5005191;28;91736;-60
2022/09/11 09:19:33;;;;;;;69.95;52.80;;;23.50;62.40;;;;;;5008613;28;90609;-58
2022/09/11 09:22:28;;;;;;;71.93;58.00;;;23.60;62.90;;;;;;5003524;28;96988;-58
2022/09/11 09:24:59;;;;;;;76.13;55.15;;;23.40;63.80;;;;;;5008162;28;91474;-59
2022/09/11 09:27:38;;;;;;;72.90;55.13;;;23.40;64.50;;;;;;5000558;28;91338;-57
2022/09/11 09:30:12;;;;;;;69.93;57.55;;;23.30;64.30;;;;;;5008105;28;90057;-57
2022/09/11 09:32:49;;;;;;;71.55;56.72;;;23.30;64.60;;;;;;5001367;27;90917;-59
2022/09/11 09:35:36;;;;;;;73.50;58.08;;;23.30;65.30;;;;;;4992108;27;94437;-59
2022/09/11 09:38:10;;;;;;;76.30;54.88;;;23.30;65.00;;;;;;4994683;27;92597;-61
2022/09/11 09:40:38;;;;;;;75.70;56.35;;;23.40;65.60;;;;;;5001577;28;91197;-58
2022/09/11 09:43:35;;;;;;;75.15;55.53;;;23.30;65.00;;;;;;4987633;27;90872;-59
2022/09/11 09:46:21;;;;;;;71.20;54.78;;;23.50;65.50;;;;;;5008943;28;91198;-58
2022/09/11 09:48:46;;;;;;;73.63;57.72;;;23.50;66.00;;;;;;5004740;27;91776;-58
2022/09/11 09:51:13;;;;;;;67.13;55.08;;;23.60;64.60;;;;;;4999225;27;91886;-59
2022/09/11 09:53:51;;;;;;;66.90;54.33;;;23.40;65.10;;;;;;5000852;28;92908;-57
2022/09/11 09:56:19;;;;;;;70.90;55.08;;;23.50;66.50;;;;;;4991350;28;95422;-57
2022/09/11 09:59:13;;;;;;;76.88;60.88;;;23.30;64.20;;;;;;4997439;28;90401;-57
2022/09/11 10:01:48;;;;;;;74.82;60.03;;;23.40;65.80;;;;;;4990774;27;92199;-58
2022/09/11 10:04:17;;;;;;;76.28;60.53;;;23.40;66.10;;;;;;4994009;27;91732;-59
2022/09/11 10:06:45;;;;;;;71.03;55.67;;;23.40;65.80;;;;;;4999745;28;92145;-58
2022/09/11 10:09:22;;;;;;;73.45;61.25;;;23.50;66.60;;;;;;5013327;28;91956;-57
2022/09/11 10:11:55;;;;;;;72.28;56.05;;;23.40;65.90;;;;;;5005251;28;89922;-60
2022/09/11 10:14:21;;;;;;;69.10;54.60;;;23.40;66.80;;;;;;5012263;28;89816;-59
2022/09/11 10:16:49;;;;;;;69.63;55.05;;;23.60;65.40;;;;;;5011552;27;91697;-59
2022/09/11 10:19:35;;;;;;;72.68;58.10;;;23.50;65.50;;;;;;5005223;28;90887;-59
2022/09/11 10:22:21;;;;;;;70.30;56.42;;;23.60;65.70;;;;;;5010084;28;90163;-60
2022/09/11 10:25:02;;;;;;;73.32;59.47;;;23.40;65.30;;;;;;5005600;27;92378;-59
2022/09/11 10:27:34;;;;;;;68.70;54.53;;;23.40;65.70;;;;;;5010414;28;97397;-59
2022/09/11 10:30:01;;;;;;;68.43;54.88;;;23.30;65.00;;;;;;5007543;28;96767;-58
2022/09/11 10:32:27;;;;;;;69.28;54.97;;;23.10;64.40;;;;;;5004516;28;93668;-59
2022/09/11 10:34:55;;;;;;;69.88;54.88;;;23.00;67.20;;;;;;5006154;28;92946;-59
2022/09/11 10:37:30;;;;;;;73.63;55.50;;;23.20;66.50;;;;;;5012253;27;90085;-60
2022/09/11 10:40:06;;;;;;;67.80;54.83;;;23.20;65.60;;;;;;5000709;28;95395;-59
2022/09/11 10:42:34;;;;;;;65.80;54.10;;;23.20;66.40;;;;;;5012146;28;90421;-57
2022/09/11 10:45:14;;;;;;;67.45;55.05;;;23.20;64.50;;;;;;5010699;28;90042;-58
2022/09/11 10:47:40;;;;;;;68.73;54.80;;;23.20;64.70;;;;;;5006257;28;91353;-59
2022/09/11 10:50:26;;;;;;;66.88;54.55;;;23.20;64.40;;;;;;5005569;27;92089;-60
2022/09/11 10:53:01;;;;;;;64.50;53.13;;;23.20;63.70;;;;;;5010096;28;93785;-60
2022/09/11 10:55:36;;;;;;;64.53;53.22;;;23.20;66.70;;;;;;5008089;28;90197;-58
2022/09/11 10:58:09;;;;;;;67.55;54.15;;;23.40;63.50;;;;;;4997355;27;91388;-60
2022/09/11 11:00:37;;;;;;;65.45;53.53;;;23.30;63.70;;;;;;5012915;28;92337;-59
2022/09/11 11:03:24;;;;;;;64.38;52.40;;;23.30;64.40;;;;;;5011931;28;90768;-58
2022/09/11 11:06:31;;;;;;;63.15;52.42;;;23.40;64.30;;;;;;5010233;28;89919;-60
2022/09/11 11:09:27;;;;;;;64.15;52.30;;;23.40;64.30;;;;;;4985894;28;91204;-58
2022/09/11 11:11:55;;;;;;;66.35;53.13;;;23.50;64.00;;;;;;5001583;27;91931;-57
2022/09/11 11:14:53;;;;;;;72.63;55.83;;;23.50;63.90;;;;;;4998372;27;93894;-60
2022/09/11 11:17:47;;;;;;;68.15;54.38;;;23.50;64.90;;;;;;4999933;27;89849;-60
2022/09/11 11:20:23;;;;;;;72.88;58.40;;;23.60;64.90;;;;;;5004735;28;92488;-60
2022/09/11 11:22:58;;;;;;;71.55;55.88;;;23.60;65.00;;;;;;5000429;27;92416;-58
2022/09/11 11:25:34;;;;;;;67.40;54.78;;;23.60;65.10;;;;;;5003210;27;92460;-58
2022/09/11 11:28:15;;;;;;;73.38;56.30;;;23.60;64.60;;;;;;5012689;28;91661;-66
2022/09/11 11:31:14;;;;;;;71.75;56.78;;;23.70;64.30;;;;;;5003668;28;91370;-57
2022/09/11 11:34:05;;;;;;;71.15;56.35;;;23.70;64.60;;;;;;5007365;28;90766;-57
2022/09/11 11:36:49;;;;;;;72.32;57.05;;;23.60;64.60;;;;;;5008442;28;90101;-57
2022/09/11 11:39:24;;;;;;;73.35;57.05;;;23.60;65.00;;;;;;5009603;27;89841;-58
2022/09/11 11:41:57;;;;;;;75.03;57.13;;;23.70;65.50;;;;;;4999457;28;91510;-57
2022/09/11 11:44:50;;;;;;;71.43;55.78;;;23.80;64.80;;;;;;5006332;27;91017;-58
2022/09/11 11:47:19;;;;;;;71.45;55.97;;;23.70;65.20;;;;;;5006821;28;90105;-58
2022/09/11 11:50:20;;;;;;;68.28;55.08;;;23.90;64.20;;;;;;4998616;27;90183;-58
2022/09/11 11:53:06;;;;;;;69.90;54.65;;;23.90;64.30;;;;;;5000187;28;93338;-56
2022/09/11 11:55:45;;;;;;;69.57;55.20;;;24.00;64.60;;;;;;5000060;28;96137;-59
2022/09/11 11:58:26;;;;;;;69.63;55.78;;;24.00;64.10;;;;;;4997823;27;90078;-58
2022/09/11 12:01:00;;;;;;;71.32;55.67;;;24.10;63.70;;;;;;5005823;28;90473;-57
2022/09/11 12:03:35;;;;;;;70.20;55.55;;;24.10;64.10;;;;;;5003206;27;91207;-57
2022/09/11 12:06:01;;;;;;;70.80;55.40;;;24.10;64.90;;;;;;4999454;28;96022;-57
2022/09/11 12:08:27;;;;;;;70.15;55.22;;;24.10;64.50;;;;;;5006737;28;96860;-57
2022/09/11 12:10:57;;;;;;;68.78;55.92;;;24.20;64.10;;;;;;4998454;27;89352;-57
2022/09/11 12:13:33;;;;;;;71.23;54.73;;;24.20;63.90;;;;;;4996708;27;91010;-58
2022/09/11 12:16:10;;;;;;;69.65;56.13;;;24.20;63.90;;;;;;4998150;28;92291;-58
2022/09/11 12:18:37;;;;;;;71.07;55.83;;;24.30;63.80;;;;;;5003255;27;93496;-56
2022/09/11 12:21:21;;;;;;;73.50;57.78;;;24.30;64.20;;;;;;5002738;27;91207;-58
2022/09/11 12:23:49;;;;;;;70.53;56.45;;;24.30;62.10;;;;;;5005923;28;93152;-58
2022/09/11 12:26:26;;;;;;;77.78;59.63;;;24.30;62.00;;;;;;5002855;27;90129;-57
2022/09/11 12:29:14;;;;;;;75.32;58.58;;;24.20;61.80;;;;;;5000799;27;96772;-57
2022/09/11 12:31:49;;;;;;;71.90;56.83;;;24.20;63.10;;;;;;4997978;28;90113;-60
2022/09/11 12:34:37;;;;;;;74.93;58.25;;;24.20;64.50;;;;;;5009740;27;91977;-58
2022/09/11 12:37:24;;;;;;;74.68;57.33;;;24.30;65.00;;;;;;4997615;27;91254;-59
2022/09/11 12:39:54;;;;;;;74.13;57.75;;;24.30;65.80;;;;;;4999787;28;90641;-60
2022/09/11 12:42:23;;;;;;;75.28;59.00;;;24.40;66.40;;;;;;5002645;27;94862;-59
2022/09/11 12:44:48;;;;;;;75.63;59.30;;;24.40;67.80;;;;;;4997051;28;92424;-59
2022/09/11 12:47:37;;;;;;;80.05;59.08;;;24.40;66.90;;;;;;5003038;28;91707;-58
2022/09/11 12:50:22;;;;;;;82.82;61.47;;;24.40;64.20;;;;;;4993439;27;89787;-58
2022/09/11 12:53:01;;;;;;;74.20;59.20;;;24.40;68.20;;;;;;5001056;28;90989;-59
2022/09/11 12:55:39;;;;;;;76.18;60.05;;;24.40;68.20;;;;;;4999325;28;91070;-57